Time;durP1;ratioP1;P1;durP2;ratioP2;P2;SDS_P1;SDS_P2;PMS_P1;PMS_P2;Temp;Humidity;BMP_temperature;BMP_pressure;BME280_temperature;BME280_humidity;BME280_pressure;Samples;Min_cycle;Max_cycle;Signal;HPM_P1;HPM_P2
2022/06/14 00:01:51;;;;;;;0.00;0.00;;;;;;;;;;4981310;28;20015;-64
2022/06/14 00:04:16;;;;;;;0.00;0.00;;;;;;;;;;4989954;28;20041;-65
2022/06/14 00:06:41;;;;;;;0.00;0.00;;;;;;;;;;4983684;28;20054;-65
2022/06/14 00:09:06;;;;;;;0.00;0.00;;;;;;;;;;4985647;28;20060;-65
2022/06/14 00:11:36;;;;;;;0.00;0.00;;;;;;;;;;4967902;28;20037;-66
2022/06/14 00:14:02;;;;;;;0.00;0.00;;;;;;;;;;4985655;28;20019;-66
2022/06/14 00:16:29;;;;;;;0.00;0.00;;;;;;;;;;4984271;28;20038;-66
2022/06/14 00:18:54;;;;;;;0.00;0.00;;;;;;;;;;4986113;28;20026;-67
2022/06/14 00:21:20;;;;;;;0.00;0.00;;;;;;;;;;4984319;28;20393;-67
2022/06/14 00:23:45;;;;;;;0.00;0.00;;;;;;;;;;4984405;28;20026;-66
2022/06/14 00:26:12;;;;;;;0.00;0.00;;;;;;;;;;4985919;28;20026;-67
2022/06/14 00:28:38;;;;;;;0.00;0.00;;;;;;;;;;4988868;28;20580;-66
2022/06/14 00:31:14;;;;;;;0.00;0.00;;;;;;;;;;4986985;28;20035;-67
2022/06/14 00:33:40;;;;;;;0.00;0.00;;;;;;;;;;4984335;28;20053;-65
2022/06/14 00:36:07;;;;;;;0.00;0.00;;;;;;;;;;4986810;28;20042;-65
2022/06/14 00:38:32;;;;;;;0.00;0.00;;;;;;;;;;4990168;28;20018;-66
2022/06/14 00:40:58;;;;;;;0.00;0.00;;;;;;;;;;4984280;28;20810;-64
2022/06/14 00:43:25;;;;;;;0.00;0.00;;;;;;;;;;4989342;28;20170;-69
2022/06/14 00:45:50;;;;;;;0.00;0.00;;;;;;;;;;4979191;28;20018;-69
2022/06/14 00:48:26;;;;;;;0.00;0.00;;;;;;;;;;4985036;28;20488;-68
2022/06/14 00:51:05;;;;;;;0.00;0.00;;;;;;;;;;4986618;28;20281;-66
2022/06/14 00:53:31;;;;;;;0.00;0.00;;;;;;;;;;4986596;28;20035;-71
2022/06/14 00:56:06;;;;;;;0.00;0.00;;;;;;;;;;4970116;28;20021;-71
2022/06/14 00:58:40;;;;;;;0.00;0.00;;;;;;;;;;4985300;28;20038;-71
2022/06/14 01:01:06;;;;;;;0.00;0.00;;;;;;;;;;4987073;28;20027;-70
2022/06/14 01:03:40;;;;;;;0.00;0.00;;;;;;;;;;4973834;28;21049;-70
2022/06/14 01:06:14;;;;;;;0.00;0.00;;;;;;;;;;4988927;28;20097;-66
2022/06/14 01:08:41;;;;;;;0.00;0.00;;;;;;;;;;4977091;28;20022;-66
2022/06/14 01:11:08;;;;;;;0.00;0.00;;;;;;;;;;4986411;28;20053;-66
2022/06/14 01:13:34;;;;;;;0.00;0.00;;;;;;;;;;4983317;28;20053;-66
2022/06/14 01:15:59;;;;;;;0.00;0.00;;;;;;;;;;4983897;28;20400;-65
2022/06/14 01:18:25;;;;;;;0.00;0.00;;;;;;;;;;4987429;28;20098;-65
2022/06/14 01:20:50;;;;;;;0.00;0.00;;;;;;;;;;4985109;28;20074;-67
2022/06/14 01:23:16;;;;;;;0.00;0.00;;;;;;;;;;4987923;28;20018;-68
2022/06/14 01:25:47;;;;;;;0.00;0.00;;;;;;;;;;4982995;28;20029;-66
2022/06/14 01:28:13;;;;;;;0.00;0.00;;;;;;;;;;4985194;28;20031;-66
2022/06/14 01:30:45;;;;;;;0.52;0.52;;;;;;;;;;4981814;28;20019;-67
2022/06/14 01:33:13;;;;;;;0.00;0.00;;;;;;;;;;4983018;28;20387;-68
2022/06/14 01:35:39;;;;;;;0.10;0.10;;;;;;;;;;4985165;28;20065;-67
2022/06/14 01:38:07;;;;;;;1.15;1.15;;;;;;;;;;4982701;28;20031;-68
2022/06/14 01:40:41;;;;;;;0.00;0.00;;;;;;;;;;4983321;28;20077;-67
2022/06/14 01:43:07;;;;;;;0.00;0.00;;;;;;;;;;4987365;28;20014;-67
2022/06/14 01:45:41;;;;;;;0.00;0.00;;;;;;;;;;4984234;28;20475;-68
2022/06/14 01:48:18;;;;;;;0.00;0.00;;;;;;;;;;4986188;28;20081;-67
2022/06/14 01:53:42;;;;;;;0.10;0.10;;;;;;;;;;4982226;28;20744;-67
2022/06/14 01:56:10;;;;;;;0.00;0.00;;;;;;;;;;4982489;28;20078;-67
2022/06/14 01:58:46;;;;;;;0.00;0.00;;;;;;;;;;4982821;28;20028;-68
2022/06/14 02:01:17;;;;;;;0.00;0.00;;;;;;;;;;4981569;28;20160;-68
2022/06/14 02:06:49;;;;;;;0.08;0.08;;;;;;;;;;4982991;28;20114;-67
2022/06/14 02:09:33;;;;;;;0.20;0.20;;;;;;;;;;4982526;28;20723;-66
2022/06/14 02:12:00;;;;;;;0.00;0.00;;;;;;;;;;4982928;28;20403;-68
2022/06/14 02:14:39;;;;;;;0.17;0.17;;;;;;;;;;4983589;28;20080;-68
2022/06/14 02:17:07;;;;;;;0.00;0.00;;;;;;;;;;4984936;28;20054;-68
2022/06/14 02:19:39;;;;;;;0.00;0.00;;;;;;;;;;4980056;28;20360;-68
2022/06/14 02:22:12;;;;;;;0.00;0.00;;;;;;;;;;4983495;28;20030;-68
2022/06/14 02:24:43;;;;;;;0.00;0.00;;;;;;;;;;4984755;28;20129;-67
2022/06/14 02:27:17;;;;;;;0.00;0.00;;;;;;;;;;4985779;28;20022;-67
2022/06/14 02:29:52;;;;;;;0.00;0.00;;;;;;;;;;4981726;28;20026;-71
2022/06/14 02:32:36;;;;;;;0.00;0.00;;;;;;;;;;4982915;28;20029;-72
2022/06/14 02:35:05;;;;;;;0.00;0.00;;;;;;;;;;4988360;28;20077;-72
2022/06/14 02:37:33;;;;;;;0.13;0.13;;;;;;;;;;4986403;28;20403;-71
2022/06/14 02:40:01;;;;;;;0.00;0.00;;;;;;;;;;4981694;28;20015;-72
2022/06/14 02:42:30;;;;;;;0.00;0.00;;;;;;;;;;4980737;28;20102;-72
2022/06/14 02:45:11;;;;;;;0.00;0.00;;;;;;;;;;4983409;28;20027;-68
2022/06/14 02:47:52;;;;;;;0.00;0.00;;;;;;;;;;4982603;28;20432;-67
2022/06/14 02:50:20;;;;;;;0.00;0.00;;;;;;;;;;4985354;28;20047;-68
2022/06/14 02:52:57;;;;;;;0.00;0.00;;;;;;;;;;4979421;28;20022;-67
2022/06/14 02:55:31;;;;;;;0.00;0.00;;;;;;;;;;4980463;28;20030;-69
2022/06/14 02:58:08;;;;;;;0.00;0.00;;;;;;;;;;4987060;28;20114;-67
2022/06/14 03:00:39;;;;;;;0.00;0.00;;;;;;;;;;4978621;28;20027;-68
2022/06/14 03:03:06;;;;;;;0.00;0.00;;;;;;;;;;4989493;28;20019;-63
2022/06/14 03:05:36;;;;;;;0.00;0.00;;;;;;;;;;4991054;28;20025;-65
2022/06/14 03:08:17;;;;;;;0.00;0.00;;;;;;;;;;4984880;28;20018;-66
2022/06/14 03:10:52;;;;;;;0.00;0.00;;;;;;;;;;4987667;28;20054;-65
2022/06/14 03:13:26;;;;;;;0.00;0.00;;;;;;;;;;4988108;28;20038;-67
2022/06/14 03:15:55;;;;;;;0.10;0.10;;;;;;;;;;4991172;28;20046;-67
2022/06/14 03:18:42;;;;;;;0.00;0.00;;;;;;;;;;4967150;28;20035;-67
2022/06/14 03:21:14;;;;;;;0.00;0.00;;;;;;;;;;4992428;28;20034;-68
2022/06/14 03:24:00;;;;;;;0.00;0.00;;;;;;;;;;4983117;28;20023;-63
2022/06/14 03:26:28;;;;;;;0.00;0.00;;;;;;;;;;4984207;28;20017;-66
2022/06/14 03:29:02;;;;;;;0.00;0.00;;;;;;;;;;4985953;28;20047;-66
2022/06/14 03:31:34;;;;;;;0.00;0.00;;;;;;;;;;4988152;28;20428;-67
2022/06/14 03:33:59;;;;;;;0.00;0.00;;;;;;;;;;4969953;28;20026;-68
2022/06/14 03:36:25;;;;;;;0.00;0.00;;;;;;;;;;4987774;28;20026;-67
2022/06/14 03:38:56;;;;;;;0.00;0.00;;;;;;;;;;4987099;28;20030;-64
2022/06/14 03:41:24;;;;;;;0.00;0.00;;;;;;;;;;4986418;28;20077;-66
2022/06/14 03:43:50;;;;;;;0.00;0.00;;;;;;;;;;4971290;28;20035;-66
2022/06/14 03:46:26;;;;;;;0.00;0.00;;;;;;;;;;4988045;28;20030;-65
2022/06/14 03:48:54;;;;;;;0.00;0.00;;;;;;;;;;4984297;28;20137;-66
2022/06/14 03:51:25;;;;;;;0.00;0.00;;;;;;;;;;4984116;28;20134;-64
2022/06/14 03:54:10;;;;;;;0.00;0.00;;;;;;;;;;4983253;28;20026;-68
2022/06/14 03:56:58;;;;;;;0.00;0.00;;;;;;;;;;4990789;28;20106;-70
2022/06/14 03:59:43;;;;;;;0.00;0.00;;;;;;;;;;4987652;28;20392;-66
2022/06/14 04:02:22;;;;;;;0.00;0.00;;;;;;;;;;4986676;28;20106;-65
2022/06/14 04:04:56;;;;;;;0.00;0.00;;;;;;;;;;4988010;28;20026;-66
2022/06/14 04:07:40;;;;;;;0.00;0.00;;;;;;;;;;4971784;28;20065;-64
2022/06/14 04:10:20;;;;;;;0.00;0.00;;;;;;;;;;4987722;28;20488;-68
2022/06/14 04:12:48;;;;;;;0.00;0.00;;;;;;;;;;4985232;28;20069;-69
2022/06/14 04:15:51;;;;;;;0.00;0.00;;;;;;;;;;4984024;28;20041;-67
2022/06/14 04:18:44;;;;;;;0.00;0.00;;;;;;;;;;4948148;29;20039;-67
2022/06/14 04:21:21;;;;;;;0.00;0.00;;;;;;;;;;4947976;29;20039;-67
2022/06/14 04:24:05;;;;;;;0.00;0.00;;;;;;;;;;4949433;29;20042;-68
2022/06/14 04:26:36;;;;;;;0.00;0.00;;;;;;;;;;4949328;29;20110;-68
2022/06/14 04:29:08;;;;;;;0.00;0.00;;;;;;;;;;4949163;29;20031;-68
2022/06/14 04:31:46;;;;;;;0.00;0.00;;;;;;;;;;4948362;29;20091;-68
2022/06/14 04:34:21;;;;;;;0.00;0.00;;;;;;;;;;4949248;28;20464;-67
2022/06/14 04:36:55;;;;;;;0.00;0.00;;;;;;;;;;4949440;28;20469;-68
2022/06/14 04:39:30;;;;;;;0.00;0.00;;;;;;;;;;4950604;28;20019;-67
2022/06/14 04:42:02;;;;;;;0.00;0.00;;;;;;;;;;4948516;28;20066;-67
2022/06/14 04:44:42;;;;;;;0.00;0.00;;;;;;;;;;4948409;29;20035;-68
2022/06/14 04:47:33;;;;;;;0.00;0.00;;;;;;;;;;4948142;29;20035;-67
2022/06/14 04:50:05;;;;;;;0.00;0.00;;;;;;;;;;4970703;28;20081;-68
2022/06/14 04:52:42;;;;;;;0.00;0.00;;;;;;;;;;4985387;28;20049;-69
2022/06/14 04:55:20;;;;;;;0.00;0.00;;;;;;;;;;4982225;28;20026;-69
2022/06/14 04:57:48;;;;;;;0.00;0.00;;;;;;;;;;4988040;28;20030;-69
2022/06/14 05:00:27;;;;;;;0.00;0.00;;;;;;;;;;4977577;28;20500;-66
2022/06/14 05:03:04;;;;;;;0.00;0.00;;;;;;;;;;4973105;28;20491;-67
2022/06/14 05:05:29;;;;;;;0.00;0.00;;;;;;;;;;4984915;28;20472;-67
2022/06/14 05:08:02;;;;;;;0.00;0.00;;;;;;;;;;4969865;28;20034;-67
2022/06/14 05:10:30;;;;;;;0.00;0.00;;;;;;;;;;4981772;28;20022;-68
2022/06/14 05:13:14;;;;;;;0.22;0.22;;;;;;;;;;4982204;28;20023;-67
2022/06/14 05:15:45;;;;;;;0.00;0.00;;;;;;;;;;4985268;28;20042;-65
2022/06/14 05:18:12;;;;;;;0.00;0.00;;;;;;;;;;4981989;28;20616;-67
2022/06/14 05:20:41;;;;;;;0.00;0.00;;;;;;;;;;4986563;28;20471;-67
2022/06/14 05:23:21;;;;;;;0.00;0.00;;;;;;;;;;4983786;28;20018;-66
2022/06/14 05:25:53;;;;;;;0.00;0.00;;;;;;;;;;4988874;28;20033;-66
2022/06/14 05:28:31;;;;;;;0.00;0.00;;;;;;;;;;4983456;28;20069;-66
2022/06/14 05:31:00;;;;;;;0.00;0.00;;;;;;;;;;4986862;28;20041;-67
2022/06/14 05:33:45;;;;;;;0.00;0.00;;;;;;;;;;4981948;28;20058;-66
2022/06/14 05:36:14;;;;;;;2.00;1.38;;;;;;;;;;4986614;28;20030;-66
2022/06/14 05:38:42;;;;;;;0.63;0.63;;;;;;;;;;4985586;28;20072;-67
2022/06/14 05:41:11;;;;;;;0.00;0.00;;;;;;;;;;4985875;28;20073;-67
2022/06/14 05:43:39;;;;;;;0.40;0.40;;;;;;;;;;4985447;28;20019;-65
2022/06/14 05:46:10;;;;;;;0.00;0.00;;;;;;;;;;4984964;28;20105;-66
2022/06/14 05:48:50;;;;;;;0.00;0.00;;;;;;;;;;4984493;28;20027;-65
2022/06/14 05:51:17;;;;;;;0.00;0.00;;;;;;;;;;4981424;28;20020;-66
2022/06/14 05:53:51;;;;;;;0.00;0.00;;;;;;;;;;4984978;28;20021;-66
2022/06/14 05:56:31;;;;;;;0.10;0.10;;;;;;;;;;4984787;28;20023;-66
2022/06/14 05:59:02;;;;;;;0.00;0.00;;;;;;;;;;4984775;28;20097;-65
2022/06/14 06:01:37;;;;;;;0.00;0.00;;;;;;;;;;4979421;28;20057;-68
2022/06/14 06:04:08;;;;;;;0.57;0.57;;;;;;;;;;4985378;28;20458;-69
2022/06/14 06:06:38;;;;;;;0.00;0.00;;;;;;;;;;4976712;28;20033;-69
2022/06/14 06:09:08;;;;;;;0.00;0.00;;;;;;;;;;4987890;28;20035;-69
2022/06/14 06:11:39;;;;;;;0.00;0.00;;;;;;;;;;4979203;28;20026;-69
2022/06/14 06:14:17;;;;;;;0.00;0.00;;;;;;;;;;4982852;28;20129;-69
2022/06/14 06:16:55;;;;;;;0.00;0.00;;;;;;;;;;4983260;28;20043;-69
2022/06/14 06:19:30;;;;;;;0.00;0.00;;;;;;;;;;4982551;28;20018;-70
2022/06/14 06:22:13;;;;;;;1.85;0.30;;;;;;;;;;4980519;28;20023;-71
2022/06/14 06:24:45;;;;;;;0.00;0.00;;;;;;;;;;4987960;28;20022;-70
2022/06/14 06:27:11;;;;;;;0.15;0.15;;;;;;;;;;4988998;28;20026;-70
2022/06/14 06:29:49;;;;;;;0.00;0.00;;;;;;;;;;4987109;28;20035;-70
2022/06/14 06:32:15;;;;;;;0.00;0.00;;;;;;;;;;4979580;28;20169;-65
2022/06/14 06:34:41;;;;;;;0.00;0.00;;;;;;;;;;4986200;28;20035;-67
2022/06/14 06:37:13;;;;;;;0.00;0.00;;;;;;;;;;4984130;28;20025;-69
2022/06/14 06:39:51;;;;;;;0.00;0.00;;;;;;;;;;4985153;28;20161;-68
2022/06/14 06:42:36;;;;;;;0.00;0.00;;;;;;;;;;4985007;28;20030;-68
2022/06/14 06:45:05;;;;;;;0.03;0.03;;;;;;;;;;4986734;28;20305;-68
2022/06/14 06:47:36;;;;;;;0.00;0.00;;;;;;;;;;4985782;28;20042;-67
2022/06/14 06:50:01;;;;;;;0.00;0.00;;;;;;;;;;4988287;28;20072;-67
2022/06/14 06:52:34;;;;;;;1.02;1.00;;;;;;;;;;4980741;28;20022;-68
2022/06/14 06:55:01;;;;;;;0.00;0.00;;;;;;;;;;4986459;28;20030;-67
2022/06/14 06:57:29;;;;;;;0.00;0.00;;;;;;;;;;4985558;28;20018;-67
2022/06/14 06:59:56;;;;;;;0.00;0.00;;;;;;;;;;4984867;28;20113;-67
2022/06/14 07:02:28;;;;;;;0.00;0.00;;;;;;;;;;4985758;28;20029;-67
2022/06/14 07:05:05;;;;;;;0.00;0.00;;;;;;;;;;4966946;28;20358;-67
2022/06/14 07:07:43;;;;;;;0.00;0.00;;;;;;;;;;4986679;28;20053;-68
2022/06/14 07:10:23;;;;;;;0.08;0.08;;;;;;;;;;4984581;28;20034;-67
2022/06/14 07:12:52;;;;;;;0.90;0.90;;;;;;;;;;4981274;28;20023;-68
2022/06/14 07:15:35;;;;;;;0.00;0.00;;;;;;;;;;4989631;28;20042;-68
2022/06/14 07:18:15;;;;;;;0.00;0.00;;;;;;;;;;4984882;28;20030;-69
2022/06/14 07:20:49;;;;;;;0.00;0.00;;;;;;;;;;4988389;28;20113;-66
2022/06/14 07:23:23;;;;;;;0.00;0.00;;;;;;;;;;4983776;28;20691;-66
2022/06/14 07:26:07;;;;;;;0.00;0.00;;;;;;;;;;4982782;28;20019;-68
2022/06/14 07:28:35;;;;;;;0.00;0.00;;;;;;;;;;4987545;28;20081;-69
2022/06/14 07:31:04;;;;;;;0.00;0.00;;;;;;;;;;4984999;28;20014;-69
2022/06/14 07:33:30;;;;;;;0.00;0.00;;;;;;;;;;4969269;28;20038;-68
2022/06/14 07:36:00;;;;;;;0.00;0.00;;;;;;;;;;4980595;28;20035;-68
2022/06/14 07:38:38;;;;;;;0.00;0.00;;;;;;;;;;4984572;28;20421;-68
2022/06/14 07:41:03;;;;;;;0.00;0.00;;;;;;;;;;4988908;28;20018;-68
2022/06/14 07:43:31;;;;;;;0.00;0.00;;;;;;;;;;4981793;28;20034;-68
2022/06/14 07:46:00;;;;;;;0.00;0.00;;;;;;;;;;4982536;28;20261;-68
2022/06/14 07:48:25;;;;;;;0.00;0.00;;;;;;;;;;4985143;28;20030;-68
2022/06/14 07:50:51;;;;;;;0.00;0.00;;;;;;;;;;4986645;28;20041;-66
2022/06/14 07:53:18;;;;;;;0.00;0.00;;;;;;;;;;4985901;28;20258;-69
2022/06/14 07:55:46;;;;;;;0.00;0.00;;;;;;;;;;4989349;28;21118;-68
2022/06/14 07:58:24;;;;;;;8.88;4.13;;;;;;;;;;4985496;28;20072;-69
2022/06/14 08:01:08;;;;;;;1.10;1.07;;;;;;;;;;4986211;28;20030;-67
2022/06/14 08:03:41;;;;;;;0.73;0.03;;;;;;;;;;4988712;28;20460;-67
2022/06/14 08:06:09;;;;;;;0.00;0.00;;;;;;;;;;4983102;28;20029;-68
2022/06/14 08:08:36;;;;;;;0.00;0.00;;;;;;;;;;4983733;28;20045;-67
2022/06/14 08:11:21;;;;;;;0.00;0.00;;;;;;;;;;4984363;28;20042;-65
2022/06/14 08:13:53;;;;;;;0.00;0.00;;;;;;;;;;4989537;28;20026;-69
2022/06/14 08:16:19;;;;;;;0.00;0.00;;;;;;;;;;4988784;28;20045;-66
2022/06/14 08:18:50;;;;;;;0.00;0.00;;;;;;;;;;4986066;28;20134;-67
2022/06/14 08:21:31;;;;;;;0.00;0.00;;;;;;;;;;4988430;28;20359;-69
2022/06/14 08:23:56;;;;;;;0.00;0.00;;;;;;;;;;4986047;28;20078;-70
2022/06/14 08:26:34;;;;;;;0.20;0.20;;;;;;;;;;4986366;28;20033;-67
2022/06/14 08:28:59;;;;;;;0.00;0.00;;;;;;;;;;4990768;28;20264;-66
2022/06/14 08:31:42;;;;;;;0.00;0.00;;;;;;;;;;4981829;28;20022;-66
2022/06/14 08:34:13;;;;;;;0.00;0.00;;;;;;;;;;4988823;28;20284;-66
2022/06/14 08:36:49;;;;;;;0.00;0.00;;;;;;;;;;4983570;28;20030;-66
2022/06/14 08:39:22;;;;;;;0.77;0.77;;;;;;;;;;4988259;28;20069;-66
2022/06/14 08:41:58;;;;;;;0.00;0.00;;;;;;;;;;4987593;28;20098;-70
2022/06/14 08:44:26;;;;;;;0.00;0.00;;;;;;;;;;4985074;28;20058;-70
2022/06/14 08:46:51;;;;;;;;;;;;;;;;;;4986652;28;20037;-69
2022/06/14 08:49:35;;;;;;;0.00;0.00;;;;;;;;;;4982176;28;19917;-65
2022/06/14 08:52:00;;;;;;;0.00;0.00;;;;;;;;;;4990134;28;20018;-65
2022/06/14 08:54:30;;;;;;;0.00;0.00;;;;;;;;;;4984535;28;20034;-65
2022/06/14 08:57:01;;;;;;;0.00;0.00;;;;;;;;;;4985010;28;20098;-65
2022/06/14 08:59:45;;;;;;;0.00;0.00;;;;;;;;;;4980181;28;20022;-64
2022/06/14 09:02:19;;;;;;;0.00;0.00;;;;;;;;;;4987394;28;20018;-63
2022/06/14 09:04:47;;;;;;;0.00;0.00;;;;;;;;;;4988340;28;20459;-63
2022/06/14 09:07:18;;;;;;;0.00;0.00;;;;;;;;;;4986409;28;20022;-68
2022/06/14 09:09:43;;;;;;;0.00;0.00;;;;;;;;;;4985421;28;20763;-68
2022/06/14 09:12:09;;;;;;;0.17;0.17;;;;;;;;;;4966321;28;20121;-68
2022/06/14 09:14:37;;;;;;;0.00;0.00;;;;;;;;;;4965264;28;20369;-68
2022/06/14 09:17:03;;;;;;;0.00;0.00;;;;;;;;;;4983708;28;20121;-69
2022/06/14 09:19:54;;;;;;;9.03;8.43;;;;;;;;;;4982673;28;20113;-67
2022/06/14 09:22:43;;;;;;;0.00;0.00;;;;;;;;;;4988866;28;20265;-64
2022/06/14 09:25:23;;;;;;;0.00;0.00;;;;;;;;;;4981905;28;20039;-70
2022/06/14 09:27:51;;;;;;;0.00;0.00;;;;;;;;;;4982656;28;20029;-66
2022/06/14 09:30:16;;;;;;;0.00;0.00;;;;;;;;;;4961490;28;20033;-66
2022/06/14 09:33:09;;;;;;;0.00;0.00;;;;;;;;;;4986591;28;20018;-66
2022/06/14 09:35:35;;;;;;;0.00;0.00;;;;;;;;;;4982567;28;20026;-64
2022/06/14 09:38:00;;;;;;;0.10;0.10;;;;;;;;;;4985994;28;20368;-64
2022/06/14 09:40:31;;;;;;;0.00;0.00;;;;;;;;;;4985966;28;20014;-67
2022/06/14 09:42:59;;;;;;;0.00;0.00;;;;;;;;;;4984178;28;20022;-65
2022/06/14 09:45:27;;;;;;;0.00;0.00;;;;;;;;;;4985150;28;20108;-64
2022/06/14 09:47:55;;;;;;;0.00;0.00;;;;;;;;;;4981696;28;20034;-65
2022/06/14 09:50:43;;;;;;;0.00;0.00;;;;;;;;;;4987259;28;20772;-65
2022/06/14 09:53:20;;;;;;;0.00;0.00;;;;;;;;;;4965439;28;20026;-67
2022/06/14 09:55:45;;;;;;;0.00;0.00;;;;;;;;;;4982063;28;20069;-67
2022/06/14 09:58:22;;;;;;;0.00;0.00;;;;;;;;;;4981395;28;20499;-66
2022/06/14 10:01:05;;;;;;;0.00;0.00;;;;;;;;;;4986293;28;20018;-64
2022/06/14 10:03:34;;;;;;;0.00;0.00;;;;;;;;;;4971260;28;20027;-64
2022/06/14 10:06:22;;;;;;;0.08;0.08;;;;;;;;;;4980831;28;20072;-63
2022/06/14 10:08:53;;;;;;;0.00;0.00;;;;;;;;;;4982427;28;20050;-65
2022/06/14 10:11:32;;;;;;;0.10;0.10;;;;;;;;;;4986167;28;20019;-64
2022/06/14 10:14:02;;;;;;;0.00;0.00;;;;;;;;;;4989723;28;20030;-64
2022/06/14 10:16:36;;;;;;;0.00;0.00;;;;;;;;;;4979082;28;20038;-64
2022/06/14 10:19:01;;;;;;;0.00;0.00;;;;;;;;;;4967870;28;20027;-65
2022/06/14 10:21:29;;;;;;;0.00;0.00;;;;;;;;;;4962708;28;20379;-63
2022/06/14 10:23:58;;;;;;;0.00;0.00;;;;;;;;;;4946693;28;20261;-61
2022/06/14 10:29:26;;;;;;;0.00;0.00;;;;;;;;;;4969262;28;20027;-66
2022/06/14 10:32:06;;;;;;;0.00;0.00;;;;;;;;;;4974319;28;20023;-66
2022/06/14 10:34:44;;;;;;;1.17;1.17;;;;;;;;;;4975820;28;20165;-69
2022/06/14 10:37:32;;;;;;;0.00;0.00;;;;;;;;;;4950381;28;20082;-69
2022/06/14 10:40:05;;;;;;;0.00;0.00;;;;;;;;;;4956057;28;20039;-65
2022/06/14 10:42:39;;;;;;;0.00;0.00;;;;;;;;;;4975263;28;20022;-67
2022/06/14 10:45:07;;;;;;;0.32;0.32;;;;;;;;;;4974778;28;20102;-67
2022/06/14 10:47:51;;;;;;;0.00;0.00;;;;;;;;;;4969241;28;20062;-67
2022/06/14 10:50:17;;;;;;;0.00;0.00;;;;;;;;;;4967324;28;20019;-67
2022/06/14 10:52:45;;;;;;;0.00;0.00;;;;;;;;;;4974888;28;20102;-67
2022/06/14 10:55:33;;;;;;;0.00;0.00;;;;;;;;;;4972245;28;20031;-67
2022/06/14 10:58:11;;;;;;;0.00;0.00;;;;;;;;;;4979382;28;20072;-67
2022/06/14 11:00:48;;;;;;;0.00;0.00;;;;;;;;;;4988311;28;20014;-67
2022/06/14 11:03:39;;;;;;;0.00;0.00;;;;;;;;;;4969627;28;20031;-68
2022/06/14 11:06:11;;;;;;;0.00;0.00;;;;;;;;;;4962032;28;20042;-70
2022/06/14 11:08:47;;;;;;;0.00;0.00;;;;;;;;;;4944207;28;20041;-66
2022/06/14 11:11:41;;;;;;;0.00;0.00;;;;;;;;;;4968114;28;20025;-64
2022/06/14 11:14:12;;;;;;;0.20;0.20;;;;;;;;;;4960868;28;20039;-61
2022/06/14 11:16:39;;;;;;;0.00;0.00;;;;;;;;;;4965370;28;20049;-61
2022/06/14 11:19:30;;;;;;;0.00;0.00;;;;;;;;;;4967206;28;20182;-64
2022/06/14 11:22:10;;;;;;;4.60;2.20;;;;;;;;;;4981155;28;20548;-66
2022/06/14 11:24:42;;;;;;;0.00;0.00;;;;;;;;;;4976352;28;20056;-66
2022/06/14 11:27:24;;;;;;;0.00;0.00;;;;;;;;;;4970468;28;20023;-65
2022/06/14 11:30:04;;;;;;;0.00;0.00;;;;;;;;;;4948577;28;20596;-67
2022/06/14 11:32:45;;;;;;;0.00;0.00;;;;;;;;;;4980171;28;20057;-66
2022/06/14 11:35:10;;;;;;;0.00;0.00;;;;;;;;;;4964906;28;20028;-70
2022/06/14 11:37:35;;;;;;;0.00;0.00;;;;;;;;;;4969847;28;20046;-66
2022/06/14 11:40:10;;;;;;;0.00;0.00;;;;;;;;;;4966920;28;20266;-67
2022/06/14 11:42:41;;;;;;;0.00;0.00;;;;;;;;;;4965337;28;20027;-66
2022/06/14 11:45:19;;;;;;;0.65;0.20;;;;;;;;;;4967518;28;20527;-66
2022/06/14 11:47:51;;;;;;;0.00;0.00;;;;;;;;;;4973718;28;20037;-66
2022/06/14 11:50:25;;;;;;;0.00;0.00;;;;;;;;;;4982016;28;20026;-66
2022/06/14 11:53:06;;;;;;;0.00;0.00;;;;;;;;;;4963419;28;20042;-66
2022/06/14 11:55:31;;;;;;;0.00;0.00;;;;;;;;;;4963266;28;20027;-63
2022/06/14 11:58:08;;;;;;;0.00;0.00;;;;;;;;;;4968188;28;20487;-64
2022/06/14 12:00:37;;;;;;;0.00;0.00;;;;;;;;;;4950550;28;20255;-63
2022/06/14 12:03:28;;;;;;;0.00;0.00;;;;;;;;;;4967082;28;20023;-64
2022/06/14 12:05:53;;;;;;;0.15;0.15;;;;;;;;;;4972394;28;20019;-65
2022/06/14 12:08:24;;;;;;;0.00;0.00;;;;;;;;;;4968113;28;20392;-63
2022/06/14 12:10:59;;;;;;;0.00;0.00;;;;;;;;;;4967917;28;20364;-65
2022/06/14 12:13:35;;;;;;;0.38;0.38;;;;;;;;;;4948861;28;20123;-64
2022/06/14 12:16:00;;;;;;;3.10;1.45;;;;;;;;;;4967794;28;20039;-65
2022/06/14 12:18:28;;;;;;;0.00;0.00;;;;;;;;;;4967881;28;20035;-65
2022/06/14 12:20:53;;;;;;;0.05;0.05;;;;;;;;;;4953471;28;20372;-64
2022/06/14 12:23:42;;;;;;;0.00;0.00;;;;;;;;;;4966231;28;20030;-63
2022/06/14 12:29:01;;;;;;;0.00;0.00;;;;;;;;;;4970076;28;20448;-65
2022/06/14 12:31:49;;;;;;;0.43;0.43;;;;;;;;;;4969106;28;21591;-65
2022/06/14 12:34:17;;;;;;;0.00;0.00;;;;;;;;;;4969768;28;20055;-64
2022/06/14 12:36:43;;;;;;;0.17;0.17;;;;;;;;;;4970303;28;20437;-64
2022/06/14 12:39:14;;;;;;;0.10;0.10;;;;;;;;;;4969524;28;20090;-64
2022/06/14 12:42:00;;;;;;;0.10;0.10;;;;;;;;;;4969267;28;20018;-64
2022/06/14 12:44:28;;;;;;;0.00;0.00;;;;;;;;;;4968106;28;20065;-65
2022/06/14 12:46:57;;;;;;;0.10;0.10;;;;;;;;;;4969852;28;20027;-65
2022/06/14 12:49:26;;;;;;;0.00;0.00;;;;;;;;;;4967125;28;20263;-65
2022/06/14 12:51:54;;;;;;;0.00;0.00;;;;;;;;;;4970269;28;20381;-65
2022/06/14 12:54:22;;;;;;;0.28;0.28;;;;;;;;;;4962537;28;20460;-65
2022/06/14 12:56:51;;;;;;;0.43;0.43;;;;;;;;;;4968724;28;20019;-63
2022/06/14 12:59:27;;;;;;;0.00;0.00;;;;;;;;;;4969372;28;20037;-63
2022/06/14 13:02:10;;;;;;;0.13;0.13;;;;;;;;;;4969900;28;20049;-64
2022/06/14 13:04:39;;;;;;;0.00;0.00;;;;;;;;;;4970958;28;20027;-63
2022/06/14 13:07:04;;;;;;;31.85;6.43;;;;;;;;;;4967794;28;20039;-64
2022/06/14 13:09:33;;;;;;;0.28;0.28;;;;;;;;;;4950153;28;20031;-63
2022/06/14 13:12:21;;;;;;;0.05;0.05;;;;;;;;;;4969235;28;20035;-64
2022/06/14 13:15:05;;;;;;;0.00;0.00;;;;;;;;;;4966061;28;20042;-64
2022/06/14 13:17:36;;;;;;;0.00;0.00;;;;;;;;;;4970389;28;20031;-62
2022/06/14 13:20:06;;;;;;;0.10;0.10;;;;;;;;;;4970547;28;20015;-63
2022/06/14 13:22:50;;;;;;;0.00;0.00;;;;;;;;;;4972759;28;20025;-63
2022/06/14 13:25:15;;;;;;;0.00;0.00;;;;;;;;;;4971736;28;20030;-63
2022/06/14 13:27:46;;;;;;;0.17;0.17;;;;;;;;;;4970617;28;20026;-62
2022/06/14 13:30:32;;;;;;;0.00;0.00;;;;;;;;;;4972269;28;20033;-62
2022/06/14 13:33:16;;;;;;;0.43;0.10;;;;;;;;;;4971213;28;20472;-64
2022/06/14 13:35:44;;;;;;;0.00;0.00;;;;;;;;;;4965317;28;20023;-63
2022/06/14 13:38:10;;;;;;;0.00;0.00;;;;;;;;;;4964842;28;20117;-63
2022/06/14 13:40:38;;;;;;;0.00;0.00;;;;;;;;;;4953506;28;20114;-63
2022/06/14 13:43:17;;;;;;;0.10;0.10;;;;;;;;;;4971217;28;20031;-63
2022/06/14 13:45:52;;;;;;;0.00;0.00;;;;;;;;;;4970471;28;20033;-63
2022/06/14 13:48:40;;;;;;;0.00;0.00;;;;;;;;;;4970123;28;20030;-63
2022/06/14 13:51:24;;;;;;;0.00;0.00;;;;;;;;;;4957734;28;20042;-64
2022/06/14 13:53:49;;;;;;;0.00;0.00;;;;;;;;;;4970030;28;20031;-64
2022/06/14 13:56:23;;;;;;;0.00;0.00;;;;;;;;;;4971692;28;20468;-64
2022/06/14 13:59:02;;;;;;;0.32;0.32;;;;;;;;;;4970064;28;20030;-63
2022/06/14 14:01:40;;;;;;;0.20;0.20;;;;;;;;;;4969157;28;20094;-62
2022/06/14 14:04:21;;;;;;;0.00;0.00;;;;;;;;;;4970789;28;20034;-63
2022/06/14 14:06:52;;;;;;;0.00;0.00;;;;;;;;;;4969637;28;20059;-62
2022/06/14 14:09:20;;;;;;;0.00;0.00;;;;;;;;;;4968867;28;20384;-63
2022/06/14 14:11:51;;;;;;;0.00;0.00;;;;;;;;;;4969998;28;20489;-63
2022/06/14 14:14:35;;;;;;;0.00;0.00;;;;;;;;;;4968686;28;20117;-63
2022/06/14 14:17:03;;;;;;;0.00;0.00;;;;;;;;;;4969521;28;20400;-64
2022/06/14 14:19:29;;;;;;;0.20;0.20;;;;;;;;;;4969521;28;20034;-64
2022/06/14 14:21:57;;;;;;;0.08;0.08;;;;;;;;;;4971012;28;20645;-64
2022/06/14 14:24:41;;;;;;;0.00;0.00;;;;;;;;;;4970857;28;20022;-64
2022/06/14 14:27:23;;;;;;;0.00;0.00;;;;;;;;;;4971296;28;20035;-64
2022/06/14 14:30:04;;;;;;;0.00;0.00;;;;;;;;;;4971492;28;20026;-63
2022/06/14 14:32:30;;;;;;;0.00;0.00;;;;;;;;;;4950966;28;20039;-63
2022/06/14 14:35:18;;;;;;;0.00;0.00;;;;;;;;;;4969906;28;20029;-64
2022/06/14 14:38:04;;;;;;;0.00;0.00;;;;;;;;;;4942163;28;20098;-65
2022/06/14 14:40:34;;;;;;;0.00;0.00;;;;;;;;;;4963158;28;20031;-65
2022/06/14 14:42:59;;;;;;;0.00;0.00;;;;;;;;;;4971516;28;20019;-64
2022/06/14 14:45:37;;;;;;;0.10;0.10;;;;;;;;;;4952110;28;20034;-65
2022/06/14 14:48:08;;;;;;;0.00;0.00;;;;;;;;;;4969012;28;20413;-66
2022/06/14 14:50:43;;;;;;;0.00;0.00;;;;;;;;;;4970145;28;20055;-65
2022/06/14 14:53:16;;;;;;;0.00;0.00;;;;;;;;;;4953470;28;20034;-65
2022/06/14 14:55:57;;;;;;;0.00;0.00;;;;;;;;;;4969879;28;20384;-63
2022/06/14 14:58:23;;;;;;;0.00;0.00;;;;;;;;;;4974085;28;20019;-68
2022/06/14 15:06:23;;;;;;;0.00;0.00;;;;;;;;;;4973693;28;20034;-65
2022/06/14 15:08:50;;;;;;;0.00;0.00;;;;;;;;;;4953194;28;20836;-65
2022/06/14 15:11:23;;;;;;;0.00;0.00;;;;;;;;;;4969222;28;20090;-65
2022/06/14 15:13:52;;;;;;;0.00;0.00;;;;;;;;;;4971349;28;20031;-66
2022/06/14 15:16:18;;;;;;;0.00;0.00;;;;;;;;;;4972159;28;20044;-66
2022/06/14 15:21:30;;;;;;;0.00;0.00;;;;;;;;;;4974815;28;20065;-65
2022/06/14 15:24:09;;;;;;;0.00;0.00;;;;;;;;;;4962078;28;20034;-66
2022/06/14 15:26:34;;;;;;;0.00;0.00;;;;;;;;;;4953788;28;20036;-66
2022/06/14 15:29:01;;;;;;;0.63;0.63;;;;;;;;;;4973713;28;20031;-66
2022/06/14 15:31:26;;;;;;;0.00;0.00;;;;;;;;;;4975306;28;20029;-65
2022/06/14 15:33:56;;;;;;;0.00;0.00;;;;;;;;;;4968774;28;20019;-66
2022/06/14 15:36:26;;;;;;;0.00;0.00;;;;;;;;;;4973236;28;20018;-65
2022/06/14 15:38:54;;;;;;;0.00;0.00;;;;;;;;;;4975209;28;20018;-66